Nearby METAR Reports

 

ENRY - Rygge (nor-Afb), Norway
Distance from station: SØ 12km
Oppdatert: 21/06/2024 00:50
Klart
Klart
 Vind fra N
Vind: N 6 km/h
Temperatur: 14°C
Duggpunkt: 5°C
Fuktighet: 55%
Barometer: 1014 hPa
Clouds: Klart
Visibility: 10 km
2024/06/20 22:50 ENRY 202250Z AUTO 01003KT 330V040 9999 NCD 14/05 Q1014
ENTO - Torp (civ/Nor-Af, Norway
Distance from station: SV 34km
Oppdatert: 21/06/2024 00:50
Klart
Klart
 Vind fra NNV
Vind: NNV 6 km/h
Temperatur: 13°C
Duggpunkt: 6°C
Fuktighet: 63%
Barometer: 1014 hPa
Clouds: Klart
Visibility: 10 km
2024/06/20 22:50 ENTO 202250Z AUTO 33003KT 290V010 9999 NCD 13/06 Q1014
 
ENNO - Notodden, Norway
Distance from station: V 80km
Oppdatert: 20/06/2024 18:50
NOT Current
Klart
Klart
 Vind fra V
Vind: V 17 km/h
Temperatur: 20°C
Duggpunkt: 6°C
Fuktighet: 40%
Barometer: 1013 hPa
Oversikt: Klart
Visibility: greater than 10 km
2024/06/20 16:50 ENNO 201650Z 28009KT CAVOK 20/06 Q1013
ENGM - Oslo/Gardermoen, Norway
Distance from station: NNØ 88km
Oppdatert: 21/06/2024 00:50
Klart
Klart
 Vind fra varies
Vind: varies 6 km/h
Temperatur: 12°C
Duggpunkt: 3°C
Fuktighet: 54%
Barometer: 1013 hPa
Oversikt: Klart
Visibility: greater than 10 km
2024/06/20 22:50 ENGM 202250Z VRB03KT CAVOK 12/03 Q1013
 
ESOK - Karlstad North, Sweden
Distance from station: Ø 153km
Oppdatert: 21/06/2024 00:50
Klart
Klart
 Vind fra SV
Vind: SV 13 km/h
Temperatur: 12°C
Duggpunkt: 10°C
Fuktighet: 88%
Barometer: 1013 hPa
Clouds: Klart
Visibility: 10 km
2024/06/20 22:50 ESOK 202250Z AUTO 22007KT 9999 NCD 12/10 Q1013
ESST - Torsby, Sweden
Distance from station: ØNØ 154km
Oppdatert: 21/06/2024 00:50
Klart
Klart
 Vind fra V
Vind: V 7 km/h
Temperatur: 12°C
Duggpunkt: 5°C
Fuktighet: 63%
Barometer: 1012 hPa
Clouds: Klart
Visibility: 10 km
2024/06/20 22:50 ESST 202250Z AUTO 28004KT 9999 NCD 12/05 Q1012
 
ESGT - Trollhattan (pvt, Sweden
Distance from station: SØ 159km
Oppdatert: 21/06/2024 00:50
Overskyet
Overskyet
 Vind fra SSV
Vind: SSV 13 km/h
Temperatur: 12°C
Duggpunkt: 10°C
Fuktighet: 88%
Barometer: 1015 hPa
Clouds: Overskyet
Visibility: 10 km
Cloud details: Overskyet 457 m
2024/06/20 22:50 ESGT 202250Z AUTO 21007KT 9999 OVC015/// 12/10 Q1015
ESIB - Satenas (swe-Afb, Sweden
Distance from station: SØ 164km
Oppdatert: 21/06/2024 00:50
Overskyet
Overskyet
 Vind fra VSV
Vind: VSV 26 km/h
Temperatur: 13°C
Duggpunkt: 11°C
Fuktighet: 88%
Barometer: 1015 hPa
Clouds: Overskyet
Visibility: 10 km
Cloud details: Overskyet 427 m
2024/06/20 22:50 ESIB 202250Z AUTO 24014KT 9999 OVC014/// 13/11 Q1015
 
ENCN - Kristiansand/Kje, Norway
Distance from station: SV 202km
Oppdatert: 21/06/2024 00:50
Klart
Klart
 Vind fra varies
Vind: varies 2 km/h
Temperatur: 12°C
Duggpunkt: 8°C
Fuktighet: 77%
Barometer: 1016 hPa
Clouds: Klart
Visibility: 10 km
2024/06/20 22:50 ENCN 202250Z AUTO VRB01KT 9999 NCD 12/08 Q1016
EKSN - Sindal Airport, Denmark
Distance from station: S 217km
Oppdatert: 30/12/2021 14:50
NOT Current
Tåke, Hovedsaklig skyet
Tåke, Hovedsaklig skyet
 Vind fra SV
Vind: SV 26 km/h
Temperatur: 7°C
Wind Chill: 3°C
Duggpunkt: 7°C
Fuktighet: 100%
Barometer: 999 hPa
Oversikt: Tåke
Clouds: Hovedsaklig skyet
Visibility: 5 km
Cloud details: Delvis skyet 183 m
Hovedsaklig skyet 244 m
2021/12/30 13:50 EKSN 301350Z 23014KT 4500 BR SCT006 BKN008 07/07 Q0999
 
ESGG - Goteborg/Landvet, Sweden
Distance from station: SSØ 220km
Oppdatert: 21/06/2024 00:50
Delvis skyet
Delvis skyet
 Vind fra V
Vind: V 17 km/h
Temperatur: 11°C
Duggpunkt: 9°C
Fuktighet: 88%
Barometer: 1016 hPa
Clouds: Delvis skyet
Visibility: 10 km
2024/06/20 22:50 ESGG 202250Z 26009KT 9999 NSC 11/09 Q1016
ESGR - Skovde Airport, Sweden
Distance from station: ØSØ 221km
Oppdatert: 31/03/2022 14:50
NOT Current
Noe regn, Overskyet
Noe regn, Overskyet
 Vind fra varies
Vind: varies 0 km/h
Temperatur: 3°C
Duggpunkt: -8°C
Fuktighet: 45%
Barometer: 1011 hPa
Oversikt: Noe regn
Clouds: Overskyet
Visibility: 10 km
Cloud details: Overskyet 1676 m
2022/03/31 12:50 ESGR 311250Z AUTO /////KT 9999 -RA OVC055/// 03/M08 Q1011 REUP
 
ESOE - Orebro (private), Sweden
Distance from station: Ø 252km
Oppdatert: 21/06/2024 00:50
Klart
Klart
 Vind fra VSV
Vind: VSV 19 km/h
Temperatur: 13°C
Duggpunkt: 11°C
Fuktighet: 88%
Barometer: 1013 hPa
Clouds: Klart
Visibility: 10 km
2024/06/20 22:50 ESOE 202250Z AUTO 24010KT 9999 NCD 13/11 Q1013
EKYT - Alborg, Denmark
Distance from station: S 264km
Oppdatert: 21/06/2024 00:50
Hovedsaklig skyet
Hovedsaklig skyet
 Vind fra V
Vind: V 15 km/h
Temperatur: 13°C
Duggpunkt: 12°C
Fuktighet: 94%
Barometer: 1017 hPa
Clouds: Hovedsaklig skyet
Visibility: 10 km
Cloud details: Hovedsaklig skyet 396 m
2024/06/20 22:50 EKYT 202250Z AUTO 27008KT 9999 BKN013/// 13/12 Q1017
 
ENSG - Sogndal/Haukasen, Norway
Distance from station: NV 269km
Oppdatert: 21/06/2024 00:50
Overskyet
Overskyet
 Vind fra calm
Vind: Stille
Temperatur: 7°C
Duggpunkt: 6°C
Fuktighet: 93%
Barometer: 1015 hPa
Clouds: Overskyet
Visibility: 10 km
Cloud details: Hovedsaklig skyet 945 m
Hovedsaklig skyet 1402 m
Overskyet 1737 m
2024/06/20 22:50 ENSG 202250Z AUTO 00000KT 9999 BKN031/// BKN046/// OVC057/// 07/06 Q1015 RMK WIND 3806FT 20005KT
ESGJ - Jonkoping Airpor, Sweden
Distance from station: SØ 273km
Oppdatert: 21/06/2024 00:50
Delvis skyet
Delvis skyet
 Vind fra VSV
Vind: VSV 15 km/h
Temperatur: 12°C
Duggpunkt: 11°C
Fuktighet: 94%
Barometer: 1016 hPa
Clouds: Delvis skyet
Visibility: 10 km
Cloud details: Delvis skyet 518 m
2024/06/20 22:50 ESGJ 202250Z 25008KT 9999 SCT017 12/11 Q1016
 
ENZV - Stavanger/Sola(A, Norway
Distance from station: V 292km
Oppdatert: 21/06/2024 00:50
Overskyet
Overskyet
 Vind fra varies
Vind: varies 2 km/h
Temperatur: 11°C
Duggpunkt: 9°C
Fuktighet: 88%
Barometer: 1017 hPa
Clouds: Overskyet
Visibility: 10 km
Cloud details: Delvis skyet 457 m
Overskyet 610 m
2024/06/20 22:50 ENZV 202250Z VRB01KT 9999 SCT015 OVC020 11/09 Q1017
ESSD - Borlange (swe-Af, Sweden
Distance from station: ØNØ 292km
Oppdatert: 21/06/2024 00:50
Klart
Klart
 Vind fra VSV
Vind: VSV 11 km/h
Temperatur: 13°C
Duggpunkt: 7°C
Fuktighet: 67%
Barometer: 1010 hPa
Clouds: Klart
Visibility: 10 km
2024/06/20 22:50 ESSD 202250Z AUTO 25006KT 9999 NCD 13/07 Q1010
 
ENSO - Stord/Soerstokke, Norway
Distance from station: V 300km
Oppdatert: 20/06/2024 19:20
NOT Current
Hovedsaklig skyet
Hovedsaklig skyet
 Vind fra V
Vind: V 9 km/h
Temperatur: 13°C
Duggpunkt: 9°C
Fuktighet: 77%
Barometer: 1018 hPa
Clouds: Hovedsaklig skyet
Visibility: 10 km
Cloud details: Delvis skyet 610 m
Hovedsaklig skyet 1067 m
2024/06/20 17:20 ENSO 201720Z 26005KT 9999 SCT020 BKN035 13/09 Q1018
ESCF - Linkoping/Malmen, Sweden
Distance from station: ØSØ 305km
Oppdatert: 21/06/2024 00:50
Klart
Klart
 Vind fra VSV
Vind: VSV 17 km/h
Temperatur: 13°C
Duggpunkt: 10°C
Fuktighet: 82%
Barometer: 1014 hPa
Clouds: Klart
Visibility: 10 km
2024/06/20 22:50 ESCF 202250Z AUTO 25009KT 9999 NCD 13/10 Q1014